createdAt,value
2023-09-03T00:01:54.295Z,0
2023-09-03T00:06:54.322Z,0
2023-09-03T00:11:54.268Z,0
2023-09-03T00:16:54.261Z,0
2023-09-03T00:21:54.264Z,0
2023-09-03T00:26:54.267Z,0
2023-09-03T00:31:54.253Z,0
2023-09-03T00:36:54.277Z,0
2023-09-03T00:41:54.249Z,0
2023-09-03T00:46:54.475Z,0
2023-09-03T00:51:54.300Z,0
2023-09-03T00:56:55.316Z,0
2023-09-03T01:01:54.302Z,0
2023-09-03T01:06:54.303Z,0
2023-09-03T01:11:54.299Z,0
2023-09-03T01:16:54.330Z,0
2023-09-03T01:21:54.318Z,0
2023-09-03T01:26:54.280Z,0
2023-09-03T01:31:54.267Z,0
2023-09-03T01:36:54.328Z,0
2023-09-03T01:41:54.472Z,0
2023-09-03T01:46:54.370Z,0
2023-09-03T01:51:54.297Z,0
2023-09-03T01:56:54.311Z,0
2023-09-03T02:01:54.351Z,0
2023-09-03T02:06:54.343Z,0
2023-09-03T02:11:54.297Z,0
2023-09-03T02:16:54.300Z,0
2023-09-03T02:21:54.322Z,0
2023-09-03T02:26:54.352Z,0
2023-09-03T02:31:54.339Z,0
2023-09-03T02:36:54.339Z,0
2023-09-03T02:41:54.332Z,0
2023-09-03T02:46:54.372Z,0
2023-09-03T02:51:54.326Z,0
2023-09-03T02:56:54.324Z,0
2023-09-03T03:01:54.434Z,0
2023-09-03T03:06:54.333Z,0
2023-09-03T03:11:54.329Z,0
2023-09-03T03:16:54.300Z,0
2023-09-03T03:21:54.351Z,0
2023-09-03T03:26:54.328Z,0
2023-09-03T03:31:54.387Z,0
2023-09-03T03:36:54.377Z,0
2023-09-03T03:41:54.351Z,0
2023-09-03T03:46:54.341Z,0
2023-09-03T03:51:54.350Z,0
2023-09-03T03:56:54.398Z,0
2023-09-03T04:01:54.429Z,0
2023-09-03T04:06:55.382Z,0
2023-09-03T04:11:54.377Z,0
2023-09-03T04:16:54.367Z,0
2023-09-03T04:21:54.370Z,0
2023-09-03T04:26:54.888Z,0
2023-09-03T04:31:54.637Z,0
2023-09-03T04:36:54.341Z,0
2023-09-03T04:41:54.355Z,0
2023-09-03T04:46:54.355Z,0
2023-09-03T04:51:54.338Z,0
2023-09-03T04:56:54.509Z,265
2023-09-03T05:01:54.384Z,0
2023-09-03T05:06:54.881Z,265
2023-09-03T05:11:54.392Z,268
2023-09-03T05:16:54.368Z,269
2023-09-03T05:21:54.384Z,270
2023-09-03T05:26:54.380Z,272
2023-09-03T05:31:54.433Z,273
2023-09-03T05:36:54.358Z,274
2023-09-03T05:41:54.372Z,277
2023-09-03T05:46:54.412Z,281
2023-09-03T05:51:54.382Z,283
2023-09-03T05:56:54.380Z,283
2023-09-03T06:01:54.749Z,284
2023-09-03T06:06:54.386Z,283
2023-09-03T06:11:54.357Z,285
2023-09-03T06:16:54.594Z,291
2023-09-03T06:21:54.375Z,290
2023-09-03T06:26:54.396Z,293
2023-09-03T06:31:54.455Z,297
2023-09-03T06:36:54.431Z,298
2023-09-03T06:41:54.379Z,304
2023-09-03T06:46:54.460Z,306
2023-09-03T06:51:54.427Z,307
2023-09-03T06:56:54.436Z,305
2023-09-03T07:01:54.377Z,312
2023-09-03T07:06:55.440Z,312
2023-09-03T07:11:54.479Z,319
2023-09-03T07:16:54.411Z,330
2023-09-03T07:21:54.378Z,325
2023-09-03T07:26:54.431Z,334
2023-09-03T07:31:54.432Z,322
2023-09-03T07:36:54.440Z,329
2023-09-03T07:41:54.881Z,331
2023-09-03T07:46:54.429Z,332
2023-09-03T07:51:54.649Z,337
2023-09-03T07:56:54.429Z,337
2023-09-03T08:01:57.791Z,344
2023-09-03T08:06:54.410Z,357
2023-09-03T08:11:54.503Z,351
2023-09-03T08:16:54.582Z,364
2023-09-03T08:21:54.537Z,364
2023-09-03T08:26:54.411Z,373
2023-09-03T08:31:54.552Z,374
2023-09-03T08:36:54.489Z,398
2023-09-03T08:41:54.476Z,389
2023-09-03T08:46:54.423Z,395
2023-09-03T08:51:54.412Z,442
2023-09-03T08:56:54.404Z,785
2023-09-03T09:01:54.436Z,979
2023-09-03T09:06:54.465Z,1007
2023-09-03T09:11:54.967Z,819
2023-09-03T09:16:54.438Z,906
2023-09-03T09:21:54.416Z,697
2023-09-03T09:26:54.920Z,830
2023-09-03T09:31:54.460Z,915
2023-09-03T09:36:54.675Z,1179
2023-09-03T09:41:54.446Z,1189
2023-09-03T09:46:54.460Z,1156
2023-09-03T09:51:55.991Z,1042
2023-09-03T09:56:57.513Z,1198
2023-09-03T10:01:54.459Z,1170
2023-09-03T10:06:54.454Z,1116
2023-09-03T10:11:54.484Z,1044
2023-09-03T10:16:54.700Z,930
2023-09-03T10:21:55.547Z,952
2023-09-03T10:26:54.581Z,849
2023-09-03T10:31:54.668Z,785
2023-09-03T10:36:54.442Z,974
2023-09-03T10:41:54.432Z,817
2023-09-03T10:46:54.525Z,830
2023-09-03T10:51:54.567Z,547
2023-09-03T10:56:54.513Z,699
2023-09-03T11:01:54.502Z,622
2023-09-03T11:06:54.957Z,1354
2023-09-03T11:11:54.500Z,1287
2023-09-03T11:16:54.487Z,1200
2023-09-03T11:21:54.483Z,1425
2023-09-03T11:26:54.499Z,1004
2023-09-03T11:31:54.499Z,468
2023-09-03T11:36:54.490Z,397
2023-09-03T11:41:55.528Z,412
2023-09-03T11:46:54.577Z,421
2023-09-03T11:51:55.576Z,391
2023-09-03T11:56:54.458Z,373
2023-09-03T12:01:54.514Z,374
2023-09-03T12:06:54.509Z,374
2023-09-03T12:11:54.531Z,386
2023-09-03T12:16:54.616Z,353
2023-09-03T12:21:54.535Z,363
2023-09-03T12:26:54.520Z,352
2023-09-03T12:31:54.606Z,338
2023-09-03T12:36:54.539Z,337
2023-09-03T12:41:54.607Z,347
2023-09-03T12:46:54.556Z,345
2023-09-03T12:51:54.564Z,348
2023-09-03T12:56:54.568Z,341
2023-09-03T13:01:54.567Z,349
2023-09-03T13:06:54.569Z,336
2023-09-03T13:11:54.788Z,334
2023-09-03T13:16:54.541Z,341
2023-09-03T13:21:54.580Z,327
2023-09-03T13:26:54.584Z,334
2023-09-03T13:31:54.558Z,323
2023-09-03T13:36:57.098Z,325
2023-09-03T13:41:54.642Z,329
2023-09-03T13:46:54.555Z,321
2023-09-03T13:51:54.594Z,324
2023-09-03T13:56:54.562Z,321
2023-09-03T14:01:54.521Z,322
2023-09-03T14:06:54.596Z,320
2023-09-03T14:11:55.609Z,328
2023-09-03T14:16:55.613Z,324
2023-09-03T14:21:54.564Z,322
2023-09-03T14:26:54.671Z,321
2023-09-03T14:31:54.623Z,316
2023-09-03T14:36:54.809Z,306
2023-09-03T14:41:54.580Z,308
2023-09-03T14:46:54.583Z,301
2023-09-03T14:51:54.571Z,308
2023-09-03T14:56:54.591Z,302
2023-09-03T15:01:54.619Z,305
2023-09-03T15:06:54.614Z,302
2023-09-03T15:11:54.594Z,296
2023-09-03T15:16:54.657Z,298
2023-09-03T15:21:54.550Z,298
2023-09-03T15:26:54.867Z,298
2023-09-03T15:31:54.623Z,297
2023-09-03T15:36:54.586Z,293
2023-09-03T15:41:54.623Z,294
2023-09-03T15:46:54.869Z,294
2023-09-03T15:51:54.612Z,291
2023-09-03T15:56:54.564Z,291
2023-09-03T16:01:54.851Z,287
2023-09-03T16:06:54.641Z,283
2023-09-03T16:11:54.894Z,284
2023-09-03T16:16:55.012Z,282
2023-09-03T16:21:54.597Z,280
2023-09-03T16:26:54.604Z,277
2023-09-03T16:31:54.642Z,276
2023-09-03T16:36:54.594Z,275
2023-09-03T16:41:54.678Z,273
2023-09-03T16:46:54.622Z,273
2023-09-03T16:51:54.786Z,274
2023-09-03T16:56:54.662Z,272
2023-09-03T17:01:54.887Z,271
2023-09-03T17:06:54.623Z,270
2023-09-03T17:11:54.655Z,269
2023-09-03T17:16:54.686Z,266
2023-09-03T17:21:54.753Z,265
2023-09-03T17:26:54.862Z,0
2023-09-03T17:31:54.653Z,0
2023-09-03T17:36:54.683Z,0
2023-09-03T17:41:54.634Z,0
2023-09-03T17:46:54.622Z,0
2023-09-03T17:51:54.606Z,0
2023-09-03T17:56:54.681Z,0
2023-09-03T18:01:54.639Z,0
2023-09-03T18:06:54.898Z,0
2023-09-03T18:11:54.878Z,0
2023-09-03T18:16:54.691Z,0
2023-09-03T18:21:54.671Z,0
2023-09-03T18:26:54.706Z,0
2023-09-03T18:31:54.646Z,0
2023-09-03T18:36:55.174Z,0
2023-09-03T18:41:54.666Z,0
2023-09-03T18:46:54.792Z,0
2023-09-03T18:51:55.370Z,0
2023-09-03T18:56:54.946Z,0
2023-09-03T19:01:54.778Z,0
2023-09-03T19:06:54.684Z,0
2023-09-03T19:11:54.682Z,0
2023-09-03T19:16:54.731Z,0
2023-09-03T19:21:54.706Z,0
2023-09-03T19:26:54.676Z,0
2023-09-03T19:31:54.725Z,0
2023-09-03T19:36:54.692Z,0
2023-09-03T19:41:54.699Z,0
2023-09-03T19:46:54.729Z,0
2023-09-03T19:51:54.704Z,0
2023-09-03T19:56:54.666Z,0
2023-09-03T20:01:54.727Z,0
2023-09-03T20:06:54.716Z,0
2023-09-03T20:11:54.757Z,0
2023-09-03T20:16:54.775Z,0
2023-09-03T20:21:54.788Z,0
2023-09-03T20:26:54.721Z,0
2023-09-03T20:31:54.730Z,0
2023-09-03T20:36:54.778Z,0
2023-09-03T20:41:54.698Z,0
2023-09-03T20:46:54.742Z,0
2023-09-03T20:51:54.750Z,0
2023-09-03T20:56:54.964Z,0
2023-09-03T21:01:54.701Z,0
2023-09-03T21:06:54.767Z,0
2023-09-03T21:11:54.705Z,0
2023-09-03T21:16:54.751Z,0
2023-09-03T21:21:54.728Z,0
2023-09-03T21:26:54.721Z,0
2023-09-03T21:31:54.752Z,0
2023-09-03T21:36:54.704Z,0
2023-09-03T21:41:54.709Z,0
2023-09-03T21:46:54.734Z,0
2023-09-03T21:51:54.738Z,0
2023-09-03T21:56:55.703Z,0
2023-09-03T22:01:54.772Z,0
2023-09-03T22:06:54.703Z,0
2023-09-03T22:11:55.303Z,0
2023-09-03T22:16:54.737Z,0
2023-09-03T22:21:55.441Z,0
2023-09-03T22:26:54.698Z,0
2023-09-03T22:31:54.757Z,0
2023-09-03T22:36:54.745Z,0
2023-09-03T22:41:54.746Z,0
2023-09-03T22:46:54.774Z,0
2023-09-03T22:51:55.973Z,0
2023-09-03T22:56:54.756Z,0
2023-09-03T23:01:55.069Z,0
2023-09-03T23:06:54.772Z,0
2023-09-03T23:11:54.765Z,0
2023-09-03T23:16:54.829Z,0
2023-09-03T23:21:54.711Z,0
2023-09-03T23:26:54.798Z,0
2023-09-03T23:31:54.803Z,0
2023-09-03T23:36:54.773Z,0
2023-09-03T23:41:54.750Z,0
2023-09-03T23:47:07.107Z,0
2023-09-03T23:51:54.738Z,0
2023-09-03T23:56:54.805Z,0
